sensor_id;sensor_type;location;lat;lon;timestamp;P1;durP1;ratioP1;P2;durP2;ratioP2
67696;SDS011;54486;51.442;6.778;2023-05-25T00:01:44;9.30;;;3.20;;
67696;SDS011;54486;51.442;6.778;2023-05-25T00:04:15;9.35;;;2.85;;
67696;SDS011;54486;51.442;6.778;2023-05-25T00:06:43;11.70;;;3.63;;
67696;SDS011;54486;51.442;6.778;2023-05-25T00:09:11;9.15;;;2.97;;
67696;SDS011;54486;51.442;6.778;2023-05-25T00:11:38;8.50;;;3.50;;
67696;SDS011;54486;51.442;6.778;2023-05-25T00:14:06;9.57;;;3.35;;
67696;SDS011;54486;51.442;6.778;2023-05-25T00:16:34;10.57;;;3.85;;
67696;SDS011;54486;51.442;6.778;2023-05-25T00:19:04;11.20;;;3.33;;
67696;SDS011;54486;51.442;6.778;2023-05-25T00:21:31;9.68;;;3.10;;
67696;SDS011;54486;51.442;6.778;2023-05-25T00:24:04;11.77;;;3.83;;
67696;SDS011;54486;51.442;6.778;2023-05-25T00:26:31;11.40;;;3.00;;
67696;SDS011;54486;51.442;6.778;2023-05-25T00:28:59;9.85;;;3.45;;
67696;SDS011;54486;51.442;6.778;2023-05-25T00:31:27;10.27;;;3.27;;
67696;SDS011;54486;51.442;6.778;2023-05-25T00:33:54;9.13;;;3.20;;
67696;SDS011;54486;51.442;6.778;2023-05-25T00:36:23;9.68;;;3.58;;
67696;SDS011;54486;51.442;6.778;2023-05-25T00:38:50;9.40;;;3.43;;
67696;SDS011;54486;51.442;6.778;2023-05-25T00:41:18;10.85;;;3.05;;
67696;SDS011;54486;51.442;6.778;2023-05-25T00:43:46;9.67;;;3.33;;
67696;SDS011;54486;51.442;6.778;2023-05-25T00:46:14;8.38;;;2.85;;
67696;SDS011;54486;51.442;6.778;2023-05-25T00:48:41;10.02;;;3.47;;
67696;SDS011;54486;51.442;6.778;2023-05-25T00:51:09;9.13;;;3.28;;
67696;SDS011;54486;51.442;6.778;2023-05-25T00:53:39;9.20;;;3.13;;
67696;SDS011;54486;51.442;6.778;2023-05-25T00:58:43;9.90;;;3.33;;
67696;SDS011;54486;51.442;6.778;2023-05-25T01:01:14;12.27;;;3.72;;
67696;SDS011;54486;51.442;6.778;2023-05-25T01:03:42;10.90;;;4.05;;
67696;SDS011;54486;51.442;6.778;2023-05-25T01:06:20;9.20;;;3.38;;
67696;SDS011;54486;51.442;6.778;2023-05-25T01:08:49;9.70;;;3.60;;
67696;SDS011;54486;51.442;6.778;2023-05-25T01:11:20;10.95;;;3.55;;
67696;SDS011;54486;51.442;6.778;2023-05-25T01:13:54;11.43;;;3.67;;
67696;SDS011;54486;51.442;6.778;2023-05-25T01:16:23;10.15;;;4.15;;
67696;SDS011;54486;51.442;6.778;2023-05-25T01:18:54;11.07;;;3.42;;
67696;SDS011;54486;51.442;6.778;2023-05-25T01:21:26;12.82;;;3.88;;
67696;SDS011;54486;51.442;6.778;2023-05-25T01:26:45;9.98;;;4.07;;
67696;SDS011;54486;51.442;6.778;2023-05-25T01:29:14;10.15;;;3.50;;
67696;SDS011;54486;51.442;6.778;2023-05-25T01:31:44;9.73;;;3.40;;
67696;SDS011;54486;51.442;6.778;2023-05-25T01:34:13;9.90;;;3.70;;
67696;SDS011;54486;51.442;6.778;2023-05-25T01:36:41;9.70;;;3.60;;
67696;SDS011;54486;51.442;6.778;2023-05-25T01:39:08;9.48;;;4.03;;
67696;SDS011;54486;51.442;6.778;2023-05-25T01:41:37;9.02;;;3.50;;
67696;SDS011;54486;51.442;6.778;2023-05-25T01:44:04;11.27;;;3.73;;
67696;SDS011;54486;51.442;6.778;2023-05-25T01:46:35;10.23;;;3.70;;
67696;SDS011;54486;51.442;6.778;2023-05-25T01:52:11;9.87;;;3.90;;
67696;SDS011;54486;51.442;6.778;2023-05-25T01:54:46;11.40;;;3.92;;
67696;SDS011;54486;51.442;6.778;2023-05-25T01:57:17;8.98;;;3.50;;
67696;SDS011;54486;51.442;6.778;2023-05-25T01:59:46;10.43;;;3.60;;
67696;SDS011;54486;51.442;6.778;2023-05-25T02:02:16;9.70;;;3.50;;
67696;SDS011;54486;51.442;6.778;2023-05-25T02:04:45;12.30;;;3.53;;
67696;SDS011;54486;51.442;6.778;2023-05-25T02:07:14;9.98;;;3.72;;
67696;SDS011;54486;51.442;6.778;2023-05-25T02:09:41;9.30;;;3.75;;
67696;SDS011;54486;51.442;6.778;2023-05-25T02:12:08;9.50;;;3.70;;
67696;SDS011;54486;51.442;6.778;2023-05-25T02:14:36;9.95;;;3.63;;
67696;SDS011;54486;51.442;6.778;2023-05-25T02:17:03;10.47;;;3.77;;
67696;SDS011;54486;51.442;6.778;2023-05-25T02:19:30;10.25;;;3.33;;
67696;SDS011;54486;51.442;6.778;2023-05-25T02:21:57;9.00;;;3.55;;
67696;SDS011;54486;51.442;6.778;2023-05-25T02:24:24;11.65;;;3.88;;
67696;SDS011;54486;51.442;6.778;2023-05-25T02:26:52;9.40;;;3.60;;
67696;SDS011;54486;51.442;6.778;2023-05-25T02:29:19;12.57;;;4.15;;
67696;SDS011;54486;51.442;6.778;2023-05-25T02:31:46;10.20;;;3.92;;
67696;SDS011;54486;51.442;6.778;2023-05-25T02:34:13;10.35;;;3.70;;
67696;SDS011;54486;51.442;6.778;2023-05-25T02:36:41;12.13;;;4.13;;
67696;SDS011;54486;51.442;6.778;2023-05-25T02:39:10;10.40;;;3.95;;
67696;SDS011;54486;51.442;6.778;2023-05-25T02:41:37;9.13;;;3.47;;
67696;SDS011;54486;51.442;6.778;2023-05-25T02:44:04;11.00;;;3.58;;
67696;SDS011;54486;51.442;6.778;2023-05-25T02:46:32;9.38;;;3.28;;
67696;SDS011;54486;51.442;6.778;2023-05-25T02:49:00;10.07;;;3.92;;
67696;SDS011;54486;51.442;6.778;2023-05-25T02:51:27;11.80;;;4.55;;
67696;SDS011;54486;51.442;6.778;2023-05-25T02:53:54;10.63;;;4.07;;
67696;SDS011;54486;51.442;6.778;2023-05-25T02:56:23;9.93;;;4.13;;
67696;SDS011;54486;51.442;6.778;2023-05-25T02:58:50;9.93;;;3.90;;
67696;SDS011;54486;51.442;6.778;2023-05-25T03:01:17;9.70;;;3.80;;
67696;SDS011;54486;51.442;6.778;2023-05-25T03:03:45;9.50;;;3.55;;
67696;SDS011;54486;51.442;6.778;2023-05-25T03:06:13;10.40;;;3.80;;
67696;SDS011;54486;51.442;6.778;2023-05-25T03:08:41;9.93;;;3.78;;
67696;SDS011;54486;51.442;6.778;2023-05-25T03:11:08;10.80;;;3.78;;
67696;SDS011;54486;51.442;6.778;2023-05-25T03:13:35;11.20;;;3.83;;
67696;SDS011;54486;51.442;6.778;2023-05-25T03:16:03;10.15;;;3.60;;
67696;SDS011;54486;51.442;6.778;2023-05-25T03:18:30;7.57;;;3.53;;
67696;SDS011;54486;51.442;6.778;2023-05-25T03:20:57;10.48;;;3.97;;
67696;SDS011;54486;51.442;6.778;2023-05-25T03:23:24;11.68;;;4.00;;
67696;SDS011;54486;51.442;6.778;2023-05-25T03:25:52;9.18;;;3.70;;
67696;SDS011;54486;51.442;6.778;2023-05-25T03:28:20;11.87;;;4.40;;
67696;SDS011;54486;51.442;6.778;2023-05-25T03:30:47;9.18;;;4.18;;
67696;SDS011;54486;51.442;6.778;2023-05-25T03:33:14;9.73;;;4.07;;
67696;SDS011;54486;51.442;6.778;2023-05-25T03:35:41;10.50;;;4.00;;
67696;SDS011;54486;51.442;6.778;2023-05-25T03:38:08;10.20;;;4.10;;
67696;SDS011;54486;51.442;6.778;2023-05-25T03:40:35;10.10;;;3.80;;
67696;SDS011;54486;51.442;6.778;2023-05-25T03:43:02;9.70;;;3.97;;
67696;SDS011;54486;51.442;6.778;2023-05-25T03:45:30;11.88;;;3.72;;
67696;SDS011;54486;51.442;6.778;2023-05-25T03:47:57;12.35;;;4.15;;
67696;SDS011;54486;51.442;6.778;2023-05-25T03:50:24;11.48;;;3.55;;
67696;SDS011;54486;51.442;6.778;2023-05-25T03:52:51;11.52;;;3.75;;
67696;SDS011;54486;51.442;6.778;2023-05-25T03:55:18;12.95;;;4.32;;
67696;SDS011;54486;51.442;6.778;2023-05-25T03:57:45;10.20;;;3.73;;
67696;SDS011;54486;51.442;6.778;2023-05-25T04:00:12;10.93;;;4.20;;
67696;SDS011;54486;51.442;6.778;2023-05-25T04:02:41;9.57;;;3.70;;
67696;SDS011;54486;51.442;6.778;2023-05-25T04:05:08;10.30;;;4.07;;
67696;SDS011;54486;51.442;6.778;2023-05-25T04:07:35;10.75;;;4.10;;
67696;SDS011;54486;51.442;6.778;2023-05-25T04:10:03;11.68;;;3.88;;
67696;SDS011;54486;51.442;6.778;2023-05-25T04:12:31;12.83;;;4.67;;
67696;SDS011;54486;51.442;6.778;2023-05-25T04:14:58;11.70;;;4.28;;
67696;SDS011;54486;51.442;6.778;2023-05-25T04:17:25;10.68;;;4.22;;
67696;SDS011;54486;51.442;6.778;2023-05-25T04:19:53;10.75;;;4.28;;
67696;SDS011;54486;51.442;6.778;2023-05-25T04:22:20;12.38;;;4.65;;
67696;SDS011;54486;51.442;6.778;2023-05-25T04:24:47;10.20;;;4.22;;
67696;SDS011;54486;51.442;6.778;2023-05-25T04:27:14;13.82;;;4.68;;
67696;SDS011;54486;51.442;6.778;2023-05-25T04:29:42;14.15;;;4.63;;
67696;SDS011;54486;51.442;6.778;2023-05-25T04:32:09;12.20;;;4.33;;
67696;SDS011;54486;51.442;6.778;2023-05-25T04:34:36;12.82;;;4.65;;
67696;SDS011;54486;51.442;6.778;2023-05-25T04:37:03;11.10;;;4.63;;
67696;SDS011;54486;51.442;6.778;2023-05-25T04:39:34;11.80;;;4.28;;
67696;SDS011;54486;51.442;6.778;2023-05-25T04:42:01;13.40;;;4.65;;
67696;SDS011;54486;51.442;6.778;2023-05-25T04:44:30;13.68;;;4.75;;
67696;SDS011;54486;51.442;6.778;2023-05-25T04:46:58;12.00;;;4.22;;
67696;SDS011;54486;51.442;6.778;2023-05-25T04:49:26;10.38;;;4.20;;
67696;SDS011;54486;51.442;6.778;2023-05-25T04:51:53;10.10;;;4.40;;
67696;SDS011;54486;51.442;6.778;2023-05-25T04:54:21;12.60;;;4.20;;
67696;SDS011;54486;51.442;6.778;2023-05-25T04:56:49;10.75;;;4.30;;
67696;SDS011;54486;51.442;6.778;2023-05-25T04:59:16;10.18;;;4.43;;
67696;SDS011;54486;51.442;6.778;2023-05-25T05:01:43;12.65;;;4.93;;
67696;SDS011;54486;51.442;6.778;2023-05-25T05:04:11;10.75;;;4.95;;
67696;SDS011;54486;51.442;6.778;2023-05-25T05:06:38;12.48;;;4.97;;
67696;SDS011;54486;51.442;6.778;2023-05-25T05:09:06;11.18;;;4.60;;
67696;SDS011;54486;51.442;6.778;2023-05-25T05:11:33;12.15;;;5.05;;
67696;SDS011;54486;51.442;6.778;2023-05-25T05:14:01;12.15;;;4.43;;
67696;SDS011;54486;51.442;6.778;2023-05-25T05:16:28;12.15;;;4.40;;
67696;SDS011;54486;51.442;6.778;2023-05-25T05:19:01;11.63;;;4.78;;
67696;SDS011;54486;51.442;6.778;2023-05-25T05:21:28;14.68;;;4.72;;
67696;SDS011;54486;51.442;6.778;2023-05-25T05:23:55;12.75;;;5.03;;
67696;SDS011;54486;51.442;6.778;2023-05-25T05:26:22;10.90;;;4.53;;
67696;SDS011;54486;51.442;6.778;2023-05-25T05:28:49;11.20;;;4.18;;
67696;SDS011;54486;51.442;6.778;2023-05-25T05:31:18;12.55;;;4.90;;
67696;SDS011;54486;51.442;6.778;2023-05-25T05:33:46;11.82;;;4.13;;
67696;SDS011;54486;51.442;6.778;2023-05-25T05:36:14;13.27;;;4.22;;
67696;SDS011;54486;51.442;6.778;2023-05-25T05:38:41;11.52;;;4.07;;
67696;SDS011;54486;51.442;6.778;2023-05-25T05:41:08;12.77;;;4.28;;
67696;SDS011;54486;51.442;6.778;2023-05-25T05:43:40;11.48;;;4.82;;
67696;SDS011;54486;51.442;6.778;2023-05-25T05:46:09;10.80;;;4.88;;
67696;SDS011;54486;51.442;6.778;2023-05-25T05:48:36;12.80;;;4.53;;
67696;SDS011;54486;51.442;6.778;2023-05-25T05:51:04;13.15;;;4.80;;
67696;SDS011;54486;51.442;6.778;2023-05-25T05:53:31;11.85;;;4.78;;
67696;SDS011;54486;51.442;6.778;2023-05-25T05:56:01;9.98;;;4.82;;
67696;SDS011;54486;51.442;6.778;2023-05-25T05:58:28;14.43;;;5.18;;
67696;SDS011;54486;51.442;6.778;2023-05-25T06:00:58;13.45;;;5.00;;
67696;SDS011;54486;51.442;6.778;2023-05-25T06:03:25;13.70;;;4.90;;
67696;SDS011;54486;51.442;6.778;2023-05-25T06:05:55;12.55;;;5.38;;
67696;SDS011;54486;51.442;6.778;2023-05-25T06:08:22;12.43;;;4.82;;
67696;SDS011;54486;51.442;6.778;2023-05-25T06:10:50;11.88;;;4.95;;
67696;SDS011;54486;51.442;6.778;2023-05-25T06:13:17;12.75;;;5.30;;
67696;SDS011;54486;51.442;6.778;2023-05-25T06:15:45;15.40;;;5.13;;
67696;SDS011;54486;51.442;6.778;2023-05-25T06:18:14;14.25;;;5.07;;
67696;SDS011;54486;51.442;6.778;2023-05-25T06:20:43;11.27;;;5.10;;
67696;SDS011;54486;51.442;6.778;2023-05-25T06:23:10;15.27;;;6.20;;
67696;SDS011;54486;51.442;6.778;2023-05-25T06:25:40;13.32;;;5.22;;
67696;SDS011;54486;51.442;6.778;2023-05-25T06:28:07;14.10;;;4.75;;
67696;SDS011;54486;51.442;6.778;2023-05-25T06:30:34;14.15;;;5.55;;
67696;SDS011;54486;51.442;6.778;2023-05-25T06:33:02;16.02;;;5.35;;
67696;SDS011;54486;51.442;6.778;2023-05-25T06:35:29;12.87;;;5.20;;
67696;SDS011;54486;51.442;6.778;2023-05-25T06:37:56;13.02;;;5.03;;
67696;SDS011;54486;51.442;6.778;2023-05-25T06:40:23;13.73;;;5.35;;
67696;SDS011;54486;51.442;6.778;2023-05-25T06:42:51;13.27;;;5.20;;
67696;SDS011;54486;51.442;6.778;2023-05-25T06:45:18;14.47;;;5.33;;
67696;SDS011;54486;51.442;6.778;2023-05-25T06:47:45;13.85;;;5.32;;
67696;SDS011;54486;51.442;6.778;2023-05-25T06:50:13;14.48;;;5.00;;
67696;SDS011;54486;51.442;6.778;2023-05-25T06:52:41;13.38;;;4.80;;
67696;SDS011;54486;51.442;6.778;2023-05-25T06:55:08;12.50;;;4.68;;
67696;SDS011;54486;51.442;6.778;2023-05-25T06:57:35;12.10;;;4.50;;
67696;SDS011;54486;51.442;6.778;2023-05-25T07:00:02;12.23;;;4.72;;
67696;SDS011;54486;51.442;6.778;2023-05-25T07:02:38;13.55;;;4.90;;
67696;SDS011;54486;51.442;6.778;2023-05-25T07:05:05;11.73;;;4.85;;
67696;SDS011;54486;51.442;6.778;2023-05-25T07:07:34;14.88;;;4.75;;
67696;SDS011;54486;51.442;6.778;2023-05-25T07:10:02;12.63;;;4.60;;
67696;SDS011;54486;51.442;6.778;2023-05-25T07:12:30;12.30;;;4.28;;
67696;SDS011;54486;51.442;6.778;2023-05-25T07:14:58;11.43;;;4.33;;
67696;SDS011;54486;51.442;6.778;2023-05-25T07:17:25;11.73;;;4.60;;
67696;SDS011;54486;51.442;6.778;2023-05-25T07:19:53;13.05;;;4.88;;
67696;SDS011;54486;51.442;6.778;2023-05-25T07:22:20;11.98;;;4.35;;
67696;SDS011;54486;51.442;6.778;2023-05-25T07:24:49;10.55;;;4.60;;
67696;SDS011;54486;51.442;6.778;2023-05-25T07:27:16;10.68;;;4.45;;
67696;SDS011;54486;51.442;6.778;2023-05-25T07:29:45;15.02;;;4.80;;
67696;SDS011;54486;51.442;6.778;2023-05-25T07:32:12;12.70;;;5.15;;
67696;SDS011;54486;51.442;6.778;2023-05-25T07:34:39;11.30;;;4.60;;
67696;SDS011;54486;51.442;6.778;2023-05-25T07:37:07;12.48;;;5.43;;
67696;SDS011;54486;51.442;6.778;2023-05-25T07:39:34;11.80;;;4.82;;
67696;SDS011;54486;51.442;6.778;2023-05-25T07:42:02;11.40;;;4.97;;
67696;SDS011;54486;51.442;6.778;2023-05-25T07:44:28;10.35;;;4.85;;
67696;SDS011;54486;51.442;6.778;2023-05-25T07:46:56;15.73;;;5.82;;
67696;SDS011;54486;51.442;6.778;2023-05-25T07:49:23;12.47;;;5.47;;
67696;SDS011;54486;51.442;6.778;2023-05-25T07:51:50;12.00;;;5.18;;
67696;SDS011;54486;51.442;6.778;2023-05-25T07:54:17;13.50;;;5.63;;
67696;SDS011;54486;51.442;6.778;2023-05-25T07:56:44;11.55;;;5.80;;
67696;SDS011;54486;51.442;6.778;2023-05-25T07:59:11;14.07;;;6.68;;
67696;SDS011;54486;51.442;6.778;2023-05-25T08:01:39;13.88;;;6.78;;
67696;SDS011;54486;51.442;6.778;2023-05-25T08:04:06;11.98;;;5.40;;
67696;SDS011;54486;51.442;6.778;2023-05-25T08:06:35;13.45;;;5.40;;
67696;SDS011;54486;51.442;6.778;2023-05-25T08:09:03;12.85;;;5.32;;
67696;SDS011;54486;51.442;6.778;2023-05-25T08:11:31;13.45;;;6.00;;
67696;SDS011;54486;51.442;6.778;2023-05-25T08:13:58;13.88;;;6.45;;
67696;SDS011;54486;51.442;6.778;2023-05-25T08:16:26;13.90;;;6.50;;
67696;SDS011;54486;51.442;6.778;2023-05-25T08:18:54;11.18;;;5.00;;
67696;SDS011;54486;51.442;6.778;2023-05-25T08:21:21;12.35;;;4.93;;
67696;SDS011;54486;51.442;6.778;2023-05-25T08:23:49;13.68;;;6.03;;
67696;SDS011;54486;51.442;6.778;2023-05-25T08:26:17;14.65;;;7.05;;
67696;SDS011;54486;51.442;6.778;2023-05-25T08:29:04;15.52;;;7.15;;
67696;SDS011;54486;51.442;6.778;2023-05-25T08:31:31;14.43;;;7.50;;
67696;SDS011;54486;51.442;6.778;2023-05-25T08:33:59;13.05;;;7.43;;
67696;SDS011;54486;51.442;6.778;2023-05-25T08:36:27;14.23;;;8.20;;
67696;SDS011;54486;51.442;6.778;2023-05-25T08:38:54;16.83;;;9.00;;
67696;SDS011;54486;51.442;6.778;2023-05-25T08:41:21;16.57;;;8.50;;
67696;SDS011;54486;51.442;6.778;2023-05-25T08:43:49;17.48;;;9.45;;
67696;SDS011;54486;51.442;6.778;2023-05-25T08:46:21;18.00;;;9.50;;
67696;SDS011;54486;51.442;6.778;2023-05-25T08:48:59;13.93;;;8.82;;
67696;SDS011;54486;51.442;6.778;2023-05-25T08:51:48;16.48;;;9.35;;
67696;SDS011;54486;51.442;6.778;2023-05-25T08:54:18;17.25;;;9.52;;
67696;SDS011;54486;51.442;6.778;2023-05-25T08:56:49;17.03;;;9.93;;
67696;SDS011;54486;51.442;6.778;2023-05-25T09:01:45;15.60;;;9.10;;
67696;SDS011;54486;51.442;6.778;2023-05-25T09:04:18;14.83;;;9.27;;
67696;SDS011;54486;51.442;6.778;2023-05-25T09:06:47;15.30;;;8.70;;
67696;SDS011;54486;51.442;6.778;2023-05-25T09:09:35;13.75;;;7.80;;
67696;SDS011;54486;51.442;6.778;2023-05-25T09:12:04;13.00;;;7.60;;
67696;SDS011;54486;51.442;6.778;2023-05-25T09:14:33;15.32;;;7.43;;
67696;SDS011;54486;51.442;6.778;2023-05-25T09:17:00;12.98;;;8.30;;
67696;SDS011;54486;51.442;6.778;2023-05-25T09:19:27;16.20;;;8.63;;
67696;SDS011;54486;51.442;6.778;2023-05-25T09:21:54;14.35;;;9.10;;
67696;SDS011;54486;51.442;6.778;2023-05-25T09:24:33;16.17;;;9.10;;
67696;SDS011;54486;51.442;6.778;2023-05-25T09:27:01;17.02;;;9.50;;
67696;SDS011;54486;51.442;6.778;2023-05-25T09:29:29;15.10;;;8.55;;
67696;SDS011;54486;51.442;6.778;2023-05-25T09:31:58;15.15;;;8.43;;
67696;SDS011;54486;51.442;6.778;2023-05-25T09:34:29;15.55;;;8.50;;
67696;SDS011;54486;51.442;6.778;2023-05-25T09:37:11;13.90;;;8.23;;
67696;SDS011;54486;51.442;6.778;2023-05-25T09:39:40;13.80;;;8.55;;
67696;SDS011;54486;51.442;6.778;2023-05-25T09:42:08;14.90;;;8.00;;
67696;SDS011;54486;51.442;6.778;2023-05-25T09:44:36;13.47;;;7.17;;
67696;SDS011;54486;51.442;6.778;2023-05-25T09:47:04;13.70;;;7.35;;
67696;SDS011;54486;51.442;6.778;2023-05-25T09:49:32;13.50;;;7.28;;
67696;SDS011;54486;51.442;6.778;2023-05-25T09:51:59;15.13;;;7.60;;
67696;SDS011;54486;51.442;6.778;2023-05-25T09:54:28;12.53;;;8.00;;
67696;SDS011;54486;51.442;6.778;2023-05-25T09:56:55;13.35;;;6.60;;
67696;SDS011;54486;51.442;6.778;2023-05-25T09:59:22;12.93;;;6.68;;
67696;SDS011;54486;51.442;6.778;2023-05-25T10:01:50;10.02;;;4.97;;
67696;SDS011;54486;51.442;6.778;2023-05-25T10:04:19;10.55;;;5.00;;
67696;SDS011;54486;51.442;6.778;2023-05-25T10:06:47;11.15;;;5.22;;
67696;SDS011;54486;51.442;6.778;2023-05-25T10:09:18;11.10;;;4.67;;
67696;SDS011;54486;51.442;6.778;2023-05-25T10:11:46;12.30;;;5.30;;
67696;SDS011;54486;51.442;6.778;2023-05-25T10:14:19;10.07;;;4.93;;
67696;SDS011;54486;51.442;6.778;2023-05-25T10:16:56;11.80;;;4.68;;
67696;SDS011;54486;51.442;6.778;2023-05-25T10:19:35;11.15;;;4.63;;
67696;SDS011;54486;51.442;6.778;2023-05-25T10:25:00;11.73;;;4.63;;
67696;SDS011;54486;51.442;6.778;2023-05-25T10:28:11;10.38;;;4.00;;
67696;SDS011;54486;51.442;6.778;2023-05-25T10:30:38;9.82;;;3.67;;
67696;SDS011;54486;51.442;6.778;2023-05-25T10:33:07;9.32;;;3.28;;
67696;SDS011;54486;51.442;6.778;2023-05-25T10:35:36;9.65;;;3.15;;
67696;SDS011;54486;51.442;6.778;2023-05-25T10:38:25;9.53;;;3.50;;
67696;SDS011;54486;51.442;6.778;2023-05-25T10:40:55;8.48;;;3.28;;
67696;SDS011;54486;51.442;6.778;2023-05-25T10:43:24;9.47;;;3.03;;
67696;SDS011;54486;51.442;6.778;2023-05-25T10:45:53;10.02;;;3.80;;
67696;SDS011;54486;51.442;6.778;2023-05-25T10:48:23;11.10;;;3.67;;
67696;SDS011;54486;51.442;6.778;2023-05-25T10:51:00;9.45;;;3.67;;
67696;SDS011;54486;51.442;6.778;2023-05-25T10:53:28;9.18;;;3.40;;
67696;SDS011;54486;51.442;6.778;2023-05-25T10:58:34;9.23;;;3.55;;
67696;SDS011;54486;51.442;6.778;2023-05-25T11:01:05;8.60;;;3.40;;
67696;SDS011;54486;51.442;6.778;2023-05-25T11:06:10;9.65;;;4.07;;
67696;SDS011;54486;51.442;6.778;2023-05-25T11:11:16;8.65;;;3.20;;
67696;SDS011;54486;51.442;6.778;2023-05-25T11:13:45;9.25;;;3.75;;
67696;SDS011;54486;51.442;6.778;2023-05-25T11:18:56;9.18;;;3.20;;
67696;SDS011;54486;51.442;6.778;2023-05-25T11:24:00;11.33;;;4.10;;
67696;SDS011;54486;51.442;6.778;2023-05-25T11:26:31;10.63;;;4.10;;
67696;SDS011;54486;51.442;6.778;2023-05-25T11:28:59;11.05;;;3.45;;
67696;SDS011;54486;51.442;6.778;2023-05-25T11:31:29;8.43;;;2.80;;
67696;SDS011;54486;51.442;6.778;2023-05-25T11:34:03;8.18;;;2.97;;
67696;SDS011;54486;51.442;6.778;2023-05-25T11:36:31;9.57;;;2.92;;
67696;SDS011;54486;51.442;6.778;2023-05-25T11:39:01;8.73;;;3.10;;
67696;SDS011;54486;51.442;6.778;2023-05-25T11:41:45;9.50;;;3.47;;
67696;SDS011;54486;51.442;6.778;2023-05-25T11:44:23;10.50;;;3.10;;
67696;SDS011;54486;51.442;6.778;2023-05-25T11:46:53;7.80;;;3.00;;
67696;SDS011;54486;51.442;6.778;2023-05-25T11:49:27;11.40;;;4.07;;
67696;SDS011;54486;51.442;6.778;2023-05-25T11:51:55;10.77;;;3.63;;
67696;SDS011;54486;51.442;6.778;2023-05-25T11:54:23;9.70;;;3.95;;
67696;SDS011;54486;51.442;6.778;2023-05-25T11:56:52;10.77;;;3.50;;
67696;SDS011;54486;51.442;6.778;2023-05-25T11:59:26;10.38;;;3.33;;
67696;SDS011;54486;51.442;6.778;2023-05-25T12:01:57;9.25;;;3.03;;
67696;SDS011;54486;51.442;6.778;2023-05-25T12:04:29;11.38;;;4.03;;
67696;SDS011;54486;51.442;6.778;2023-05-25T12:07:03;9.50;;;4.18;;
67696;SDS011;54486;51.442;6.778;2023-05-25T12:09:32;10.75;;;3.60;;
67696;SDS011;54486;51.442;6.778;2023-05-25T12:12:01;9.57;;;3.70;;
67696;SDS011;54486;51.442;6.778;2023-05-25T12:14:29;9.52;;;3.33;;
67696;SDS011;54486;51.442;6.778;2023-05-25T12:17:00;8.23;;;3.25;;
67696;SDS011;54486;51.442;6.778;2023-05-25T12:19:27;9.50;;;3.50;;
67696;SDS011;54486;51.442;6.778;2023-05-25T12:21:55;9.15;;;3.22;;
67696;SDS011;54486;51.442;6.778;2023-05-25T12:24:23;9.55;;;3.33;;
67696;SDS011;54486;51.442;6.778;2023-05-25T12:26:52;9.73;;;3.13;;
67696;SDS011;54486;51.442;6.778;2023-05-25T12:29:24;11.07;;;3.42;;
67696;SDS011;54486;51.442;6.778;2023-05-25T12:31:52;9.13;;;3.63;;
67696;SDS011;54486;51.442;6.778;2023-05-25T12:34:28;8.88;;;3.88;;
67696;SDS011;54486;51.442;6.778;2023-05-25T12:36:56;8.27;;;3.53;;
67696;SDS011;54486;51.442;6.778;2023-05-25T12:41:57;10.63;;;3.37;;
67696;SDS011;54486;51.442;6.778;2023-05-25T12:44:33;9.13;;;3.42;;
67696;SDS011;54486;51.442;6.778;2023-05-25T12:47:09;9.60;;;3.30;;
67696;SDS011;54486;51.442;6.778;2023-05-25T12:49:40;9.35;;;3.08;;
67696;SDS011;54486;51.442;6.778;2023-05-25T12:52:09;9.23;;;2.75;;
67696;SDS011;54486;51.442;6.778;2023-05-25T12:57:12;9.23;;;2.88;;
67696;SDS011;54486;51.442;6.778;2023-05-25T12:59:42;9.20;;;3.15;;
67696;SDS011;54486;51.442;6.778;2023-05-25T13:02:13;9.18;;;2.90;;
67696;SDS011;54486;51.442;6.778;2023-05-25T13:04:40;8.90;;;3.93;;
67696;SDS011;54486;51.442;6.778;2023-05-25T13:07:08;8.82;;;3.95;;
67696;SDS011;54486;51.442;6.778;2023-05-25T13:09:36;9.70;;;4.03;;
67696;SDS011;54486;51.442;6.778;2023-05-25T13:12:03;9.40;;;4.55;;
67696;SDS011;54486;51.442;6.778;2023-05-25T13:14:32;9.35;;;4.10;;
67696;SDS011;54486;51.442;6.778;2023-05-25T13:16:59;8.82;;;3.90;;
67696;SDS011;54486;51.442;6.778;2023-05-25T13:19:26;9.90;;;3.87;;
67696;SDS011;54486;51.442;6.778;2023-05-25T13:21:53;8.73;;;4.05;;
67696;SDS011;54486;51.442;6.778;2023-05-25T13:24:22;8.27;;;3.58;;
67696;SDS011;54486;51.442;6.778;2023-05-25T13:26:50;10.95;;;3.67;;
67696;SDS011;54486;51.442;6.778;2023-05-25T13:29:17;8.88;;;3.67;;
67696;SDS011;54486;51.442;6.778;2023-05-25T13:31:44;9.68;;;3.88;;
67696;SDS011;54486;51.442;6.778;2023-05-25T13:34:12;8.77;;;3.50;;
67696;SDS011;54486;51.442;6.778;2023-05-25T13:36:39;7.78;;;2.80;;
67696;SDS011;54486;51.442;6.778;2023-05-25T13:39:06;8.60;;;3.00;;
67696;SDS011;54486;51.442;6.778;2023-05-25T13:41:36;8.77;;;2.60;;
67696;SDS011;54486;51.442;6.778;2023-05-25T13:44:03;7.13;;;2.50;;
67696;SDS011;54486;51.442;6.778;2023-05-25T13:46:30;8.00;;;2.33;;
67696;SDS011;54486;51.442;6.778;2023-05-25T13:49:01;7.50;;;2.58;;
67696;SDS011;54486;51.442;6.778;2023-05-25T13:51:29;8.10;;;2.65;;
67696;SDS011;54486;51.442;6.778;2023-05-25T13:54:00;7.82;;;2.40;;
67696;SDS011;54486;51.442;6.778;2023-05-25T13:56:28;8.47;;;2.70;;
67696;SDS011;54486;51.442;6.778;2023-05-25T13:58:55;8.30;;;2.70;;
67696;SDS011;54486;51.442;6.778;2023-05-25T14:01:24;7.17;;;2.80;;
67696;SDS011;54486;51.442;6.778;2023-05-25T14:03:53;8.02;;;2.63;;
67696;SDS011;54486;51.442;6.778;2023-05-25T14:06:22;7.90;;;2.80;;
67696;SDS011;54486;51.442;6.778;2023-05-25T14:08:50;7.80;;;2.40;;
67696;SDS011;54486;51.442;6.778;2023-05-25T14:11:18;8.45;;;2.85;;
67696;SDS011;54486;51.442;6.778;2023-05-25T14:13:53;7.23;;;2.70;;
67696;SDS011;54486;51.442;6.778;2023-05-25T14:16:21;8.95;;;2.67;;
67696;SDS011;54486;51.442;6.778;2023-05-25T14:18:48;9.15;;;3.08;;
67696;SDS011;54486;51.442;6.778;2023-05-25T14:21:15;7.82;;;2.80;;
67696;SDS011;54486;51.442;6.778;2023-05-25T14:23:44;7.90;;;2.60;;
67696;SDS011;54486;51.442;6.778;2023-05-25T14:26:10;7.50;;;2.53;;
67696;SDS011;54486;51.442;6.778;2023-05-25T14:28:38;7.70;;;2.50;;
67696;SDS011;54486;51.442;6.778;2023-05-25T14:31:05;7.45;;;2.60;;
67696;SDS011;54486;51.442;6.778;2023-05-25T14:33:32;7.82;;;2.70;;
67696;SDS011;54486;51.442;6.778;2023-05-25T14:36:00;7.60;;;2.90;;
67696;SDS011;54486;51.442;6.778;2023-05-25T14:38:27;8.32;;;2.80;;
67696;SDS011;54486;51.442;6.778;2023-05-25T14:40:58;7.80;;;2.97;;
67696;SDS011;54486;51.442;6.778;2023-05-25T14:43:27;7.63;;;2.70;;
67696;SDS011;54486;51.442;6.778;2023-05-25T14:45:54;7.25;;;2.63;;
67696;SDS011;54486;51.442;6.778;2023-05-25T14:48:21;7.75;;;2.60;;
67696;SDS011;54486;51.442;6.778;2023-05-25T14:50:51;8.02;;;2.30;;
67696;SDS011;54486;51.442;6.778;2023-05-25T14:53:18;7.82;;;2.45;;
67696;SDS011;54486;51.442;6.778;2023-05-25T14:55:46;7.47;;;2.40;;
67696;SDS011;54486;51.442;6.778;2023-05-25T14:58:14;7.75;;;2.35;;
67696;SDS011;54486;51.442;6.778;2023-05-25T15:00:42;7.82;;;2.80;;
67696;SDS011;54486;51.442;6.778;2023-05-25T15:03:10;8.25;;;2.50;;
67696;SDS011;54486;51.442;6.778;2023-05-25T15:05:37;8.50;;;2.58;;
67696;SDS011;54486;51.442;6.778;2023-05-25T15:08:04;8.68;;;2.60;;
67696;SDS011;54486;51.442;6.778;2023-05-25T15:10:32;7.77;;;2.50;;
67696;SDS011;54486;51.442;6.778;2023-05-25T15:12:59;8.05;;;2.75;;
67696;SDS011;54486;51.442;6.778;2023-05-25T15:15:27;7.60;;;2.25;;
67696;SDS011;54486;51.442;6.778;2023-05-25T15:17:54;8.95;;;2.58;;
67696;SDS011;54486;51.442;6.778;2023-05-25T15:20:22;7.07;;;2.25;;
67696;SDS011;54486;51.442;6.778;2023-05-25T15:22:49;7.35;;;2.30;;